Time;durP1;ratioP1;P1;durP2;ratioP2;P2;SDS_P1;SDS_P2;PMS_P1;PMS_P2;Temp;Humidity;BMP_temperature;BMP_pressure;BME280_temperature;BME280_humidity;BME280_pressure;Samples;Min_cycle;Max_cycle;Signal;HPM_P1;HPM_P2
2023/08/10 00:03:56;;;;;;;5.40;1.40;;;23.40;59.00;;;;;;226072;1282;22592;-54
2023/08/10 00:09:01;;;;;;;5.00;1.50;;;23.60;58.60;;;;;;219799;1285;23441;-54
2023/08/10 00:14:05;;;;;;;2.20;1.90;;;23.60;58.60;;;;;;220232;1277;22550;-54
2023/08/10 00:19:09;;;;;;;5.40;1.70;;;23.60;58.80;;;;;;218973;1276;22548;-55
2023/08/10 00:24:14;;;;;;;1.50;1.40;;;23.50;59.60;;;;;;218901;1276;22655;-53
2023/08/10 00:29:19;;;;;;;2.60;1.80;;;23.50;59.40;;;;;;218943;1287;22550;-55
2023/08/10 00:34:23;;;;;;;2.90;1.90;;;23.40;59.60;;;;;;218775;1283;22564;-54
2023/08/10 00:39:27;;;;;;;2.20;1.70;;;23.40;60.00;;;;;;218697;1277;24717;-54
2023/08/10 00:44:34;;;;;;;1.90;1.50;;;23.40;59.70;;;;;;218760;1283;22689;-56
2023/08/10 00:49:38;;;;;;;1.60;1.50;;;23.30;59.90;;;;;;218723;1276;22651;-54
2023/08/10 00:54:43;;;;;;;2.50;1.80;;;23.30;60.00;;;;;;218877;1289;23951;-54
2023/08/10 00:59:47;;;;;;;1.00;1.00;;;23.30;60.20;;;;;;218734;1275;25402;-54
2023/08/10 01:04:51;;;;;;;2.50;1.70;;;23.30;60.10;;;;;;218938;1289;23924;-56
2023/08/10 01:10:13;;;;;;;2.30;1.50;;;23.30;60.20;;;;;;218818;1276;24208;-54
2023/08/10 01:15:28;;;;;;;1.50;1.40;;;23.20;60.30;;;;;;218926;1283;23932;-54
2023/08/10 01:20:36;;;;;;;2.10;1.50;;;23.20;60.50;;;;;;218943;1276;25255;-56
2023/08/10 01:25:42;;;;;;;1.50;1.40;;;23.20;60.80;;;;;;218930;1283;25628;-55
2023/08/10 01:30:46;;;;;;;2.90;1.40;;;23.10;60.90;;;;;;218921;1283;22533;-61
2023/08/10 01:35:53;;;;;;;1.60;1.30;;;23.20;60.70;;;;;;218874;1285;25300;-55
2023/08/10 01:40:57;;;;;;;1.90;1.80;;;23.20;61.00;;;;;;218955;1283;24229;-56
2023/08/10 01:46:02;;;;;;;1.40;1.10;;;23.10;60.80;;;;;;218975;1276;22530;-55
2023/08/10 01:51:08;;;;;;;1.40;1.30;;;23.10;60.80;;;;;;218861;1279;24388;-54
2023/08/10 01:56:14;;;;;;;1.50;1.20;;;23.10;60.90;;;;;;218933;1283;22813;-53
2023/08/10 02:01:18;;;;;;;1.80;1.30;;;23.00;61.10;;;;;;218955;1276;22580;-53
2023/08/10 02:06:23;;;;;;;1.40;1.30;;;23.10;61.50;;;;;;218937;1282;22536;-54
2023/08/10 02:11:27;;;;;;;1.90;1.40;;;23.00;61.00;;;;;;218951;1283;22552;-55
2023/08/10 02:16:31;;;;;;;2.10;1.50;;;23.00;61.40;;;;;;218687;1283;198598;-55
2023/08/10 02:21:36;;;;;;;1.50;1.40;;;23.00;61.00;;;;;;218902;1274;23935;-52
2023/08/10 02:26:40;;;;;;;1.40;1.30;;;23.00;60.90;;;;;;218864;1283;25255;-55
2023/08/10 02:31:46;;;;;;;3.10;1.40;;;23.00;61.00;;;;;;218875;1286;22662;-54
2023/08/10 02:36:50;;;;;;;1.50;1.30;;;23.00;61.00;;;;;;218724;1284;24271;-55
2023/08/10 02:41:54;;;;;;;1.60;1.50;;;23.00;61.00;;;;;;218707;1289;22708;-55
2023/08/10 02:46:59;;;;;;;1.40;1.20;;;23.00;61.00;;;;;;218833;1285;22539;-54
2023/08/10 02:52:03;;;;;;;1.60;1.50;;;23.00;61.10;;;;;;218949;1289;24225;-57
2023/08/10 02:57:08;;;;;;;2.30;1.30;;;22.90;60.80;;;;;;218939;1276;24303;-54
2023/08/10 03:02:17;;;;;;;1.40;1.30;;;22.90;61.10;;;;;;218805;1276;24803;-53
2023/08/10 03:07:22;;;;;;;1.60;1.40;;;22.90;60.90;;;;;;218721;1277;25374;-55
2023/08/10 03:12:26;;;;;;;1.30;1.10;;;22.90;61.00;;;;;;218868;1286;22668;-52
2023/08/10 03:17:31;;;;;;;2.60;1.30;;;22.90;61.00;;;;;;218755;1291;22540;-55
2023/08/10 03:22:35;;;;;;;1.30;1.20;;;22.90;60.90;;;;;;218935;1286;22579;-55
2023/08/10 03:27:39;;;;;;;1.30;1.20;;;22.90;61.00;;;;;;218756;1283;22553;-55
2023/08/10 03:32:46;;;;;;;1.00;1.00;;;22.90;61.10;;;;;;218651;1291;24241;-54
2023/08/10 03:37:51;;;;;;;1.00;1.00;;;22.90;61.10;;;;;;218828;1288;22691;-55
2023/08/10 03:42:56;;;;;;;1.30;1.20;;;22.90;61.30;;;;;;218795;1276;22549;-53
2023/08/10 03:48:02;;;;;;;1.20;1.10;;;22.90;61.00;;;;;;218892;1267;22643;-55
2023/08/10 03:53:06;;;;;;;0.90;0.90;;;22.90;61.00;;;;;;218723;1288;22779;-53
2023/08/10 03:58:11;;;;;;;1.30;1.20;;;22.80;61.20;;;;;;218680;1289;22662;-52
2023/08/10 04:03:16;;;;;;;1.40;1.30;;;22.80;61.10;;;;;;218487;1289;24600;-53
2023/08/10 04:08:20;;;;;;;1.30;1.20;;;22.80;61.10;;;;;;222056;1291;22728;-55
2023/08/10 04:13:24;;;;;;;1.10;1.10;;;22.90;60.90;;;;;;221940;1285;25284;-52
2023/08/10 04:18:29;;;;;;;1.50;1.40;;;22.90;60.80;;;;;;218989;1277;26671;-55
2023/08/10 04:23:34;;;;;;;1.60;1.10;;;22.90;61.00;;;;;;218876;1289;22592;-53
2023/08/10 04:28:39;;;;;;;1.10;1.10;;;22.80;61.20;;;;;;218962;1289;22537;-54
2023/08/10 04:33:43;;;;;;;1.30;1.20;;;22.80;61.30;;;;;;219115;1291;25472;-52
2023/08/10 04:38:47;;;;;;;1.50;1.20;;;22.80;61.40;;;;;;218934;1289;22670;-58
2023/08/10 04:43:52;;;;;;;1.30;1.20;;;22.80;61.40;;;;;;218808;1276;22711;-55
2023/08/10 04:48:56;;;;;;;1.20;1.10;;;22.80;61.30;;;;;;218769;1286;22557;-53
2023/08/10 04:54:08;;;;;;;1.60;1.50;;;22.80;61.40;;;;;;218870;1276;22759;-53
2023/08/10 04:59:12;;;;;;;1.20;1.10;;;22.80;61.70;;;;;;218882;1279;22646;-55
2023/08/10 05:04:20;;;;;;;1.30;1.20;;;22.80;61.60;;;;;;218846;1289;24195;-53
2023/08/10 05:09:24;;;;;;;1.80;1.20;;;22.80;61.20;;;;;;218820;1289;22542;-55
2023/08/10 05:14:28;;;;;;;2.20;1.00;;;22.80;61.40;;;;;;218812;1276;23912;-55
2023/08/10 05:19:32;;;;;;;2.10;1.50;;;22.80;61.40;;;;;;218808;1291;22661;-55
2023/08/10 05:24:37;;;;;;;1.70;1.30;;;22.70;61.40;;;;;;218902;1288;22611;-55
2023/08/10 05:29:41;;;;;;;1.10;1.10;;;22.80;61.50;;;;;;218865;1285;22547;-55
2023/08/10 05:34:46;;;;;;;2.70;1.20;;;22.80;61.60;;;;;;218590;1276;22693;-53
2023/08/10 05:39:51;;;;;;;4.00;1.00;;;22.90;61.50;;;;;;218834;1288;22859;-54
2023/08/10 05:44:55;;;;;;;0.90;0.90;;;22.90;60.70;;;;;;218710;1283;23232;-55
2023/08/10 05:49:59;;;;;;;6.00;1.10;;;22.90;61.00;;;;;;218667;1283;23104;-51
2023/08/10 05:55:05;;;;;;;1.30;1.20;;;22.90;61.10;;;;;;218573;1283;23908;-54
2023/08/10 06:00:13;;;;;;;1.30;1.20;;;23.00;61.10;;;;;;218945;1270;22690;-53
2023/08/10 06:05:18;;;;;;;1.30;1.20;;;23.20;61.60;;;;;;218913;1277;22552;-51
2023/08/10 06:10:23;;;;;;;1.10;1.10;;;23.20;61.40;;;;;;218763;1282;22539;-56
2023/08/10 06:15:27;;;;;;;1.70;1.30;;;23.30;61.50;;;;;;218928;1276;22686;-55
2023/08/10 06:20:33;;;;;;;2.30;1.30;;;23.20;61.10;;;;;;218716;1279;23241;-53
2023/08/10 06:25:37;;;;;;;10.40;1.10;;;23.10;61.40;;;;;;218363;1279;24239;-54
2023/08/10 06:30:41;;;;;;;1.30;1.20;;;23.20;61.40;;;;;;220949;1291;23977;-54
2023/08/10 06:35:46;;;;;;;1.20;1.10;;;23.20;60.90;;;;;;218840;1283;24295;-54
2023/08/10 06:40:50;;;;;;;4.90;1.40;;;23.20;60.90;;;;;;218866;1283;24241;-53
2023/08/10 06:45:55;;;;;;;1.30;1.10;;;23.10;61.80;;;;;;218845;1286;24228;-51
2023/08/10 06:50:59;;;;;;;1.50;1.30;;;23.20;61.90;;;;;;218846;1279;22845;-57
2023/08/10 06:56:05;;;;;;;1.40;1.30;;;23.20;61.50;;;;;;218785;1291;24246;-54
2023/08/10 07:01:11;;;;;;;1.20;1.10;;;23.20;61.90;;;;;;219125;1276;24259;-56
2023/08/10 07:06:17;;;;;;;2.90;1.20;;;23.20;62.40;;;;;;219041;1291;24228;-54
2023/08/10 07:11:22;;;;;;;1.40;1.20;;;23.30;62.00;;;;;;218905;1283;22534;-53
2023/08/10 07:16:27;;;;;;;1.10;1.00;;;23.30;61.50;;;;;;219051;1289;22549;-51
2023/08/10 07:21:31;;;;;;;0.90;0.80;;;23.30;62.10;;;;;;219008;1284;24254;-52
2023/08/10 07:26:35;;;;;;;4.50;1.10;;;23.30;61.50;;;;;;218839;1282;25353;-54
2023/08/10 07:31:39;;;;;;;3.20;1.00;;;23.30;61.50;;;;;;218736;1276;24793;-53
2023/08/10 07:36:43;;;;;;;1.20;1.10;;;23.40;61.40;;;;;;218894;1291;25458;-54
2023/08/10 07:41:47;;;;;;;1.40;1.10;;;23.30;61.50;;;;;;218988;1289;22533;-52
2023/08/10 07:46:52;;;;;;;1.40;1.10;;;23.20;62.50;;;;;;218986;1283;25271;-51
2023/08/10 07:51:57;;;;;;;1.10;1.00;;;23.30;61.70;;;;;;218630;1276;22541;-50
2023/08/10 07:57:02;;;;;;;3.90;1.30;;;23.40;61.40;;;;;;218883;1291;22607;-53
2023/08/10 08:02:06;;;;;;;1.50;1.00;;;23.30;62.00;;;;;;218920;1288;22565;-51
2023/08/10 08:07:11;;;;;;;1.50;1.10;;;23.20;62.10;;;;;;218812;1273;22668;-51
2023/08/10 08:12:15;;;;;;;1.60;1.00;;;23.20;62.10;;;;;;219057;1283;24479;-53
2023/08/10 08:17:21;;;;;;;1.30;1.00;;;23.30;62.00;;;;;;219010;1286;25384;-54
2023/08/10 08:22:25;;;;;;;4.70;1.10;;;23.50;61.70;;;;;;218865;1289;22924;-52
2023/08/10 08:27:29;;;;;;;1.50;0.80;;;23.50;62.00;;;;;;218859;1288;22550;-51
2023/08/10 08:32:33;;;;;;;1.60;1.10;;;23.50;61.80;;;;;;218574;1291;24224;-56
2023/08/10 08:37:54;;;;;;;5.20;1.50;;;23.40;61.70;;;;;;218894;1283;22562;-52
2023/08/10 08:43:01;;;;;;;2.00;1.10;;;23.50;61.60;;;;;;218650;1286;24201;-56
2023/08/10 08:48:10;;;;;;;1.30;1.20;;;23.50;61.50;;;;;;218786;1286;24239;-54
2023/08/10 08:53:25;;;;;;;1.30;1.10;;;23.60;61.50;;;;;;218699;1289;22599;-53
2023/08/10 08:58:29;;;;;;;2.10;1.10;;;23.60;61.40;;;;;;218958;1283;25255;-53
2023/08/10 09:03:34;;;;;;;0.90;0.90;;;23.60;61.30;;;;;;218609;1280;24443;-51
2023/08/10 09:08:39;;;;;;;3.70;1.00;;;23.60;61.30;;;;;;218887;1286;22552;-51
2023/08/10 09:14:04;;;;;;;1.50;0.80;;;23.60;61.50;;;;;;218762;1283;23913;-53
2023/08/10 09:19:14;;;;;;;6.90;1.20;;;23.60;61.40;;;;;;218913;1282;22553;-54
2023/08/10 09:24:18;;;;;;;4.20;1.00;;;23.70;61.40;;;;;;218954;1289;24953;-53
2023/08/10 09:29:29;;;;;;;1.30;1.20;;;23.70;61.60;;;;;;218659;1286;25360;-55
2023/08/10 09:34:33;;;;;;;1.40;1.10;;;23.70;61.40;;;;;;218795;1289;26209;-56
2023/08/10 09:39:38;;;;;;;3.60;1.00;;;23.80;61.20;;;;;;218963;1289;24223;-53
2023/08/10 09:44:49;;;;;;;6.60;1.00;;;23.80;61.00;;;;;;219067;1283;25414;-50
2023/08/10 09:50:01;;;;;;;1.70;0.90;;;23.90;61.10;;;;;;218762;1286;22545;-54
2023/08/10 09:55:08;;;;;;;3.80;1.10;;;23.90;61.40;;;;;;218788;1289;22635;-52
2023/08/10 10:00:22;;;;;;;1.50;0.70;;;23.90;61.60;;;;;;218988;1277;24185;-52
2023/08/10 10:05:26;;;;;;;1.80;1.00;;;23.90;61.10;;;;;;218828;1289;23291;-53
2023/08/10 10:10:42;;;;;;;1.40;0.90;;;23.90;61.30;;;;;;218699;1290;22536;-57
2023/08/10 10:15:47;;;;;;;3.60;1.30;;;24.10;60.70;;;;;;219075;1288;23039;-54
2023/08/10 10:20:52;;;;;;;1.60;1.30;;;24.10;60.60;;;;;;218915;1288;24402;-52
2023/08/10 10:25:58;;;;;;;3.30;1.30;;;24.10;61.20;;;;;;218717;1286;24245;-53
2023/08/10 10:31:10;;;;;;;2.60;1.10;;;24.20;60.90;;;;;;218747;1289;24080;-54
2023/08/10 10:36:20;;;;;;;2.40;1.40;;;24.30;61.00;;;;;;218680;1291;24247;-50
2023/08/10 10:41:32;;;;;;;2.60;1.10;;;24.30;61.00;;;;;;218689;1287;22713;-51
2023/08/10 10:46:38;;;;;;;3.50;1.50;;;24.30;60.60;;;;;;218734;1289;22536;-51
2023/08/10 10:51:59;;;;;;;6.00;1.60;;;24.40;60.50;;;;;;218900;1289;25343;-53
2023/08/10 10:57:06;;;;;;;4.30;1.50;;;24.40;60.60;;;;;;218962;1286;23818;-55
2023/08/10 11:02:10;;;;;;;1.60;1.20;;;24.50;60.40;;;;;;218833;1285;22793;-53
2023/08/10 11:07:15;;;;;;;7.00;1.60;;;24.50;60.40;;;;;;218939;1283;22543;-53
2023/08/10 11:12:20;;;;;;;7.20;2.10;;;24.50;60.40;;;;;;218802;1284;22537;-48
2023/08/10 11:17:28;;;;;;;7.30;2.20;;;24.60;60.20;;;;;;219028;1283;22821;-52
2023/08/10 11:22:53;;;;;;;8.20;2.40;;;24.60;60.70;;;;;;218863;1285;24231;-50
2023/08/10 11:27:58;;;;;;;4.80;2.10;;;24.60;60.30;;;;;;218800;1284;22551;-52
2023/08/10 11:33:03;;;;;;;10.70;3.50;;;24.60;60.60;;;;;;218616;1289;24292;-53
2023/08/10 11:38:08;;;;;;;12.60;5.20;;;24.60;60.50;;;;;;218503;1286;22806;-52
2023/08/10 11:43:19;;;;;;;10.80;4.00;;;24.70;60.80;;;;;;218779;1289;22619;-49
2023/08/10 11:48:26;;;;;;;8.70;4.20;;;24.60;64.00;;;;;;218623;1286;24295;-53
2023/08/10 11:53:41;;;;;;;8.70;3.00;;;24.60;64.00;;;;;;218517;1287;24301;-51
2023/08/10 11:58:46;;;;;;;11.10;3.80;;;24.60;62.80;;;;;;218846;1289;23945;-49
2023/08/10 12:03:51;;;;;;;7.30;3.00;;;24.70;63.90;;;;;;218681;1287;22665;-48
2023/08/10 12:09:11;;;;;;;9.60;4.20;;;24.70;63.60;;;;;;218894;1284;22491;-48
2023/08/10 12:14:19;;;;;;;7.00;3.10;;;24.70;63.80;;;;;;218791;1284;24272;-49
2023/08/10 12:19:23;;;;;;;7.10;3.40;;;24.80;63.10;;;;;;218900;1286;22540;-50
2023/08/10 12:24:27;;;;;;;8.10;2.80;;;24.80;64.40;;;;;;218908;1291;22556;-48
2023/08/10 12:29:32;;;;;;;5.50;2.30;;;24.70;63.80;;;;;;218798;1282;22602;-50
2023/08/10 12:34:36;;;;;;;6.90;3.20;;;24.70;63.50;;;;;;218800;1277;22546;-50
2023/08/10 12:39:41;;;;;;;6.70;2.50;;;24.70;63.30;;;;;;218487;1283;24922;-48
2023/08/10 12:44:45;;;;;;;7.00;3.20;;;24.70;63.10;;;;;;218378;1291;24228;-47
2023/08/10 12:49:49;;;;;;;6.90;2.90;;;24.80;63.00;;;;;;218617;1270;24452;-50
2023/08/10 12:54:54;;;;;;;6.90;3.00;;;24.90;62.50;;;;;;219388;1279;22555;-51
2023/08/10 13:00:00;;;;;;;3.80;2.40;;;24.90;62.80;;;;;;218530;1291;25671;-50
2023/08/10 13:05:09;;;;;;;7.90;2.50;;;24.90;62.30;;;;;;218857;1287;22805;-52
2023/08/10 13:10:17;;;;;;;4.50;2.20;;;25.00;62.30;;;;;;218626;1276;24234;-52
2023/08/10 13:15:21;;;;;;;5.60;2.70;;;24.90;62.20;;;;;;218411;1286;24279;-50
2023/08/10 13:20:25;;;;;;;6.00;2.60;;;24.90;62.00;;;;;;218622;1283;23936;-46
2023/08/10 13:25:29;;;;;;;5.10;3.00;;;25.00;61.90;;;;;;218711;1286;22554;-48
2023/08/10 13:30:34;;;;;;;5.10;2.70;;;25.00;62.20;;;;;;218515;1284;22539;-49
2023/08/10 13:35:39;;;;;;;5.00;2.60;;;25.10;62.10;;;;;;218784;1286;24279;-48
2023/08/10 13:40:46;;;;;;;4.50;2.10;;;25.10;61.50;;;;;;218810;1289;22646;-48
2023/08/10 13:45:51;;;;;;;3.60;2.20;;;25.20;61.30;;;;;;218544;1289;22634;-52
2023/08/10 13:50:56;;;;;;;4.10;1.80;;;25.10;61.60;;;;;;218895;1289;22705;-48
2023/08/10 13:56:01;;;;;;;4.70;1.90;;;25.20;61.00;;;;;;218306;1291;24078;-52
2023/08/10 14:01:09;;;;;;;5.30;2.40;;;25.10;60.80;;;;;;218809;1291;24260;-47
2023/08/10 14:06:13;;;;;;;3.70;2.10;;;25.10;60.90;;;;;;218731;1283;25371;-50
2023/08/10 14:11:18;;;;;;;5.00;2.00;;;25.20;61.00;;;;;;218609;1289;22734;-49
2023/08/10 14:16:22;;;;;;;4.30;1.90;;;25.10;61.10;;;;;;218761;1291;191500;-49
2023/08/10 14:21:26;;;;;;;3.10;2.20;;;25.20;60.90;;;;;;218620;1291;22546;-47
2023/08/10 14:26:38;;;;;;;3.80;2.30;;;25.20;60.80;;;;;;218579;1287;22629;-51
2023/08/10 14:31:42;;;;;;;;;;;25.20;60.60;;;;;;218351;1289;24224;-51
2023/08/10 14:36:46;;;;;;;3.30;2.00;;;25.30;60.70;;;;;;218915;1282;25380;-49
2023/08/10 14:41:51;;;;;;;2.80;1.90;;;25.30;60.80;;;;;;218533;1290;22494;-55
2023/08/10 14:46:59;;;;;;;3.10;1.80;;;25.30;60.80;;;;;;218720;1289;22669;-56
2023/08/10 14:52:09;;;;;;;2.20;1.90;;;25.30;60.70;;;;;;218500;1279;22627;-51
2023/08/10 14:57:16;;;;;;;5.70;2.30;;;25.10;61.30;;;;;;218817;1286;22541;-51
2023/08/10 15:02:20;;;;;;;6.90;1.80;;;25.10;60.70;;;;;;219137;1277;24016;-52
2023/08/10 15:07:28;;;;;;;3.40;1.90;;;24.90;58.40;;;;;;218820;1291;22599;-50
2023/08/10 15:12:33;;;;;;;6.00;1.70;;;24.90;57.90;;;;;;218809;1277;22534;-55
2023/08/10 15:17:38;;;;;;;12.50;2.30;;;24.80;55.90;;;;;;218819;1286;22567;-47
2023/08/10 15:22:45;;;;;;;9.90;2.10;;;24.80;57.40;;;;;;218950;1286;22585;-46
2023/08/10 15:27:49;;;;;;;16.00;2.70;;;24.70;58.40;;;;;;218745;1289;23967;-50
2023/08/10 15:32:54;;;;;;;14.50;2.10;;;24.90;58.80;;;;;;218671;1289;22554;-48
2023/08/10 15:37:58;;;;;;;9.40;2.00;;;24.90;57.10;;;;;;218255;1289;23612;-49
2023/08/10 15:43:02;;;;;;;8.60;1.70;;;24.90;57.50;;;;;;226531;1291;22194;-49
2023/08/10 15:48:07;;;;;;;8.90;1.80;;;24.90;56.50;;;;;;226544;1289;22945;-47
2023/08/10 15:53:11;;;;;;;8.60;2.10;;;25.20;53.50;;;;;;220641;1284;24891;-50
2023/08/10 15:58:15;;;;;;;5.00;1.80;;;25.20;53.10;;;;;;218777;1289;24771;-49
2023/08/10 16:03:20;;;;;;;3.90;1.70;;;25.00;55.10;;;;;;218806;1279;22602;-48
2023/08/10 16:08:24;;;;;;;5.10;1.80;;;24.80;53.90;;;;;;218758;1292;22546;-48
2023/08/10 16:13:29;;;;;;;4.20;1.50;;;24.80;55.90;;;;;;218657;1292;24221;-53
2023/08/10 16:18:34;;;;;;;2.50;1.80;;;24.70;54.30;;;;;;218470;1291;22544;-50
2023/08/10 16:23:38;;;;;;;2.40;1.50;;;24.70;54.20;;;;;;218998;1279;24319;-49
2023/08/10 16:28:43;;;;;;;2.20;1.50;;;24.70;53.80;;;;;;218826;1291;25532;-49
2023/08/10 16:33:47;;;;;;;3.10;1.40;;;24.70;53.70;;;;;;218804;1277;22625;-50
2023/08/10 16:38:51;;;;;;;1.60;1.40;;;24.60;54.20;;;;;;218793;1283;22553;-48
2023/08/10 16:43:56;;;;;;;2.90;1.60;;;24.70;53.10;;;;;;218603;1290;22662;-51
2023/08/10 16:49:00;;;;;;;4.20;1.20;;;24.60;52.50;;;;;;218624;1291;22809;-50
2023/08/10 16:54:05;;;;;;;1.70;1.50;;;24.60;52.90;;;;;;218725;1280;22807;-53
2023/08/10 16:59:09;;;;;;;2.00;1.20;;;24.60;53.10;;;;;;218899;1289;24245;-48
2023/08/10 17:04:14;;;;;;;1.90;1.40;;;24.50;52.10;;;;;;218912;1290;24260;-50
2023/08/10 17:09:19;;;;;;;3.90;1.30;;;24.60;52.50;;;;;;218797;1289;24221;-50
2023/08/10 17:14:24;;;;;;;1.90;1.30;;;24.50;52.50;;;;;;219087;1286;22677;-49
2023/08/10 17:19:34;;;;;;;0.70;0.70;;;24.60;52.50;;;;;;218847;1289;25300;-50
2023/08/10 17:24:39;;;;;;;3.10;1.50;;;24.60;52.60;;;;;;218766;1292;22553;-49
2023/08/10 17:29:51;;;;;;;2.10;1.40;;;24.50;52.00;;;;;;218950;1286;22669;-48
2023/08/10 17:34:56;;;;;;;5.00;1.50;;;24.50;52.70;;;;;;218859;1289;23410;-49
2023/08/10 17:40:01;;;;;;;1.80;1.20;;;24.50;52.70;;;;;;218592;1285;22760;-51
2023/08/10 17:45:07;;;;;;;2.80;1.70;;;24.50;52.50;;;;;;218672;1276;22542;-51
2023/08/10 17:50:12;;;;;;;1.50;1.40;;;24.50;52.40;;;;;;218759;1290;25967;-50
2023/08/10 17:55:17;;;;;;;2.30;1.40;;;24.50;52.50;;;;;;218682;1287;22661;-48
2023/08/10 18:00:23;;;;;;;2.50;1.50;;;24.50;52.60;;;;;;218928;1280;22663;-53
2023/08/10 18:05:30;;;;;;;2.90;1.60;;;24.50;52.70;;;;;;218743;1283;22543;-47
2023/08/10 18:10:37;;;;;;;1.50;1.40;;;24.50;52.90;;;;;;218696;1289;25515;-49
2023/08/10 18:15:44;;;;;;;2.90;1.40;;;24.50;53.10;;;;;;218879;1275;22672;-48
2023/08/10 18:20:49;;;;;;;2.40;1.40;;;24.40;53.10;;;;;;218871;1286;22674;-49
2023/08/10 18:25:55;;;;;;;2.40;1.50;;;24.50;53.30;;;;;;219022;1289;22631;-51
2023/08/10 18:31:00;;;;;;;3.40;1.50;;;24.40;53.50;;;;;;218866;1283;23356;-50
2023/08/10 18:36:07;;;;;;;2.10;1.60;;;24.40;53.60;;;;;;218652;1279;23959;-49
2023/08/10 18:41:12;;;;;;;3.20;1.70;;;24.40;53.80;;;;;;218931;1286;24225;-47
2023/08/10 18:46:21;;;;;;;3.10;1.80;;;24.30;54.20;;;;;;218887;1283;22588;-49
2023/08/10 18:51:26;;;;;;;2.20;1.60;;;24.30;54.50;;;;;;218930;1289;23506;-48
2023/08/10 18:56:31;;;;;;;2.50;1.60;;;24.30;54.10;;;;;;218946;1280;25144;-52
2023/08/10 19:01:35;;;;;;;3.50;1.80;;;24.30;54.10;;;;;;218888;1288;22547;-54
2023/08/10 19:06:40;;;;;;;2.70;1.60;;;24.30;54.30;;;;;;218882;1280;25309;-51
2023/08/10 19:11:45;;;;;;;2.70;1.70;;;24.30;54.60;;;;;;218881;1290;25255;-55
2023/08/10 19:16:50;;;;;;;2.20;1.80;;;24.30;54.60;;;;;;218793;1286;25739;-51
2023/08/10 19:21:56;;;;;;;2.30;1.70;;;24.30;54.70;;;;;;218858;1286;24281;-48
2023/08/10 19:27:03;;;;;;;1.70;1.50;;;24.30;54.60;;;;;;218850;1286;23920;-47
2023/08/10 19:32:07;;;;;;;2.60;2.10;;;24.30;54.80;;;;;;218881;1276;24539;-47
2023/08/10 19:37:14;;;;;;;3.30;1.80;;;24.20;54.80;;;;;;218839;1279;25415;-48
2023/08/10 19:42:23;;;;;;;4.10;2.20;;;24.20;55.00;;;;;;218922;1291;24407;-49
2023/08/10 19:47:29;;;;;;;3.30;1.60;;;24.20;54.90;;;;;;218968;1286;22575;-52
2023/08/10 19:52:35;;;;;;;3.80;2.10;;;24.20;55.20;;;;;;218954;1276;22668;-50
2023/08/10 19:57:40;;;;;;;2.10;1.90;;;24.20;54.80;;;;;;219024;1277;22672;-51
2023/08/10 20:02:45;;;;;;;3.10;1.70;;;24.20;54.70;;;;;;218753;1276;25329;-50
2023/08/10 20:07:50;;;;;;;2.30;1.50;;;24.10;54.70;;;;;;218808;1289;25358;-51
2023/08/10 20:12:55;;;;;;;2.40;1.80;;;24.10;54.70;;;;;;218981;1276;24243;-48
2023/08/10 20:18:03;;;;;;;3.20;1.60;;;24.10;54.90;;;;;;218855;1291;24472;-50
2023/08/10 20:23:07;;;;;;;3.50;1.70;;;24.10;54.90;;;;;;218746;1276;25355;-51
2023/08/10 20:28:12;;;;;;;1.60;1.50;;;24.10;55.00;;;;;;218949;1283;24390;-47
2023/08/10 20:33:17;;;;;;;2.50;1.60;;;24.10;55.00;;;;;;218858;1291;22553;-47
2023/08/10 20:38:23;;;;;;;1.70;1.60;;;24.00;55.40;;;;;;218904;1283;22554;-50
2023/08/10 20:43:27;;;;;;;2.70;1.50;;;24.00;55.40;;;;;;219057;1283;24224;-48
2023/08/10 20:48:33;;;;;;;3.70;1.90;;;24.00;55.10;;;;;;218906;1288;22542;-47
2023/08/10 20:53:38;;;;;;;1.40;1.30;;;24.00;55.40;;;;;;218891;1289;24510;-49
2023/08/10 20:58:51;;;;;;;2.30;1.60;;;24.00;55.10;;;;;;218918;1267;24435;-50
2023/08/10 21:03:56;;;;;;;3.20;2.30;;;23.90;55.20;;;;;;218576;1283;24238;-49
2023/08/10 21:09:00;;;;;;;12.20;3.10;;;24.00;55.50;;;;;;218666;1288;22537;-48
2023/08/10 21:14:04;;;;;;;8.50;2.20;;;24.00;55.80;;;;;;218710;1286;24266;-52
2023/08/10 21:19:16;;;;;;;12.90;2.20;;;24.10;56.80;;;;;;218839;1277;22592;-48
2023/08/10 21:24:23;;;;;;;11.50;2.20;;;24.20;58.00;;;;;;218812;1276;22551;-51
2023/08/10 21:29:28;;;;;;;6.40;2.00;;;24.20;57.80;;;;;;218874;1283;22553;-50
2023/08/10 21:34:32;;;;;;;8.90;2.60;;;24.20;58.10;;;;;;218735;1282;24216;-53
2023/08/10 21:39:36;;;;;;;8.00;2.10;;;24.20;57.70;;;;;;218541;1282;22628;-50
2023/08/10 21:44:41;;;;;;;4.10;1.60;;;24.20;57.80;;;;;;218446;1291;22741;-52
2023/08/10 21:49:50;;;;;;;4.40;2.10;;;24.10;57.40;;;;;;218827;1283;22539;-49
2023/08/10 21:54:54;;;;;;;5.70;2.00;;;24.10;58.30;;;;;;218881;1286;22641;-52
2023/08/10 22:00:00;;;;;;;4.20;2.00;;;24.10;58.00;;;;;;218896;1280;22630;-50
2023/08/10 22:05:05;;;;;;;4.90;1.90;;;24.10;58.20;;;;;;218826;1289;22541;-51
2023/08/10 22:10:11;;;;;;;4.10;1.90;;;24.10;58.80;;;;;;218721;1279;25229;-47
2023/08/10 22:15:15;;;;;;;4.70;1.90;;;24.20;58.80;;;;;;218784;1286;25277;-52
2023/08/10 22:20:19;;;;;;;5.70;2.00;;;24.10;59.00;;;;;;218606;1276;24137;-50
2023/08/10 22:25:23;;;;;;;3.80;1.80;;;24.10;59.10;;;;;;218560;1286;22546;-49
2023/08/10 22:30:28;;;;;;;4.80;1.90;;;24.10;59.50;;;;;;218719;1283;22536;-51
2023/08/10 22:35:32;;;;;;;3.00;1.40;;;24.10;59.30;;;;;;219009;1276;22537;-51
